sensor_id;sensor_type;location;lat;lon;timestamp;pressure;altitude;pressure_sealevel;temperature;humidity
75063;BME280;63981;51.052;13.754;2023-04-03T00:01:13;101502.06;;;3.51;61.62
75063;BME280;63981;51.052;13.754;2023-04-03T00:03:39;101434.59;;;2.81;61.74
75063;BME280;63981;51.052;13.754;2023-04-03T00:06:07;101508.50;;;3.31;61.88
75063;BME280;63981;51.052;13.754;2023-04-03T00:08:35;101499.31;;;3.07;62.88
75063;BME280;63981;51.052;13.754;2023-04-03T00:11:02;101504.34;;;3.19;62.94
75063;BME280;63981;51.052;13.754;2023-04-03T00:13:28;101509.44;;;3.25;62.62
75063;BME280;63981;51.052;13.754;2023-04-03T00:15:53;101459.03;;;2.74;63.43
75063;BME280;63981;51.052;13.754;2023-04-03T00:18:19;101519.00;;;3.24;62.14
75063;BME280;63981;51.052;13.754;2023-04-03T00:20:45;101522.66;;;3.14;62.57
75063;BME280;63981;51.052;13.754;2023-04-03T00:23:11;101519.25;;;3.09;62.43
75063;BME280;63981;51.052;13.754;2023-04-03T00:25:37;101530.69;;;2.99;62.73
75063;BME280;63981;51.052;13.754;2023-04-03T00:28:03;101532.56;;;2.89;63.35
75063;BME280;63981;51.052;13.754;2023-04-03T00:30:30;101534.88;;;3.09;63.06
75063;BME280;63981;51.052;13.754;2023-04-03T00:32:56;101535.94;;;2.96;62.81
75063;BME280;63981;51.052;13.754;2023-04-03T00:35:23;101503.25;;;2.75;63.62
75063;BME280;63981;51.052;13.754;2023-04-03T00:37:54;101536.75;;;3.01;63.95
75063;BME280;63981;51.052;13.754;2023-04-03T00:40:23;101542.91;;;2.94;63.92
75063;BME280;63981;51.052;13.754;2023-04-03T00:42:54;101547.34;;;2.87;64.16
75063;BME280;63981;51.052;13.754;2023-04-03T00:45:36;101549.16;;;2.81;64.09
75063;BME280;63981;51.052;13.754;2023-04-03T00:48:05;101526.03;;;2.58;65.05
75063;BME280;63981;51.052;13.754;2023-04-03T00:50:35;101549.38;;;2.65;64.17
75063;BME280;63981;51.052;13.754;2023-04-03T00:53:03;101543.19;;;2.73;64.35
75063;BME280;63981;51.052;13.754;2023-04-03T00:55:30;101542.78;;;3.05;64.58
75063;BME280;63981;51.052;13.754;2023-04-03T00:57:57;101516.25;;;2.77;64.22
75063;BME280;63981;51.052;13.754;2023-04-03T01:00:24;101514.47;;;2.79;63.18
75063;BME280;63981;51.052;13.754;2023-04-03T01:02:51;101548.41;;;2.74;64.09
75063;BME280;63981;51.052;13.754;2023-04-03T01:05:19;101549.38;;;2.64;65.10
75063;BME280;63981;51.052;13.754;2023-04-03T01:07:46;101557.06;;;2.75;64.43
75063;BME280;63981;51.052;13.754;2023-04-03T01:10:15;101561.41;;;2.74;64.85
75063;BME280;63981;51.052;13.754;2023-04-03T01:12:44;101565.63;;;2.83;64.91
75063;BME280;63981;51.052;13.754;2023-04-03T01:15:29;101562.25;;;2.73;64.50
75063;BME280;63981;51.052;13.754;2023-04-03T01:18:00;101564.13;;;2.65;64.08
75063;BME280;63981;51.052;13.754;2023-04-03T01:25:39;101571.25;;;2.46;65.29
75063;BME280;63981;51.052;13.754;2023-04-03T01:28:08;101568.59;;;2.52;65.15
75063;BME280;63981;51.052;13.754;2023-04-03T01:30:43;101572.00;;;2.60;63.81
75063;BME280;63981;51.052;13.754;2023-04-03T01:33:11;101578.16;;;2.52;63.64
75063;BME280;63981;51.052;13.754;2023-04-03T01:35:37;101579.09;;;2.48;64.44
75063;BME280;63981;51.052;13.754;2023-04-03T01:38:03;101578.97;;;2.57;63.27
75063;BME280;63981;51.052;13.754;2023-04-03T01:40:29;101596.41;;;2.50;63.48
75063;BME280;63981;51.052;13.754;2023-04-03T01:42:55;101592.97;;;2.44;63.63
75063;BME280;63981;51.052;13.754;2023-04-03T01:45:21;101585.25;;;2.38;64.03
75063;BME280;63981;51.052;13.754;2023-04-03T01:47:46;101589.69;;;2.26;63.46
75063;BME280;63981;51.052;13.754;2023-04-03T01:50:12;101587.28;;;2.06;64.65
75063;BME280;63981;51.052;13.754;2023-04-03T01:52:38;101594.09;;;2.20;64.41
75063;BME280;63981;51.052;13.754;2023-04-03T01:55:04;101598.59;;;2.02;63.47
75063;BME280;63981;51.052;13.754;2023-04-03T01:57:30;101588.50;;;1.66;64.63
75063;BME280;63981;51.052;13.754;2023-04-03T01:59:56;101594.38;;;1.91;64.59
75063;BME280;63981;51.052;13.754;2023-04-03T02:02:22;101606.28;;;2.16;64.35
75063;BME280;63981;51.052;13.754;2023-04-03T02:04:48;101614.03;;;2.19;63.48
75063;BME280;63981;51.052;13.754;2023-04-03T02:07:14;101545.16;;;1.71;63.39
75063;BME280;63981;51.052;13.754;2023-04-03T02:09:39;101611.69;;;1.92;63.01
75063;BME280;63981;51.052;13.754;2023-04-03T02:12:06;101614.34;;;1.87;63.41
75063;BME280;63981;51.052;13.754;2023-04-03T02:14:32;101606.56;;;1.81;65.19
75063;BME280;63981;51.052;13.754;2023-04-03T02:17:00;101616.88;;;1.93;64.76
75063;BME280;63981;51.052;13.754;2023-04-03T02:19:26;101583.31;;;1.63;64.28
75063;BME280;63981;51.052;13.754;2023-04-03T02:21:52;101555.00;;;1.28;63.76
75063;BME280;63981;51.052;13.754;2023-04-03T02:24:18;101611.19;;;1.41;63.55
75063;BME280;63981;51.052;13.754;2023-04-03T02:26:43;101621.81;;;2.24;62.33
75063;BME280;63981;51.052;13.754;2023-04-03T02:29:09;101622.16;;;1.81;64.37
75063;BME280;63981;51.052;13.754;2023-04-03T02:31:35;101626.63;;;1.65;64.62
75063;BME280;63981;51.052;13.754;2023-04-03T02:34:01;101634.47;;;1.56;64.79
75063;BME280;63981;51.052;13.754;2023-04-03T02:36:28;101623.38;;;1.34;63.72
75063;BME280;63981;51.052;13.754;2023-04-03T02:38:57;101627.66;;;1.38;64.32
75063;BME280;63981;51.052;13.754;2023-04-03T02:41:23;101630.38;;;1.18;65.00
75063;BME280;63981;51.052;13.754;2023-04-03T02:43:51;101639.06;;;1.13;65.31
75063;BME280;63981;51.052;13.754;2023-04-03T02:46:17;101619.13;;;1.13;64.61
75063;BME280;63981;51.052;13.754;2023-04-03T02:48:43;101638.19;;;1.18;66.29
75063;BME280;63981;51.052;13.754;2023-04-03T02:51:09;101588.16;;;0.77;66.05
75063;BME280;63981;51.052;13.754;2023-04-03T02:53:35;101645.06;;;1.24;64.50
75063;BME280;63981;51.052;13.754;2023-04-03T02:56:07;101646.97;;;0.82;65.31
75063;BME280;63981;51.052;13.754;2023-04-03T02:58:33;101651.34;;;0.67;65.86
75063;BME280;63981;51.052;13.754;2023-04-03T03:00:59;101658.28;;;0.58;67.36
75063;BME280;63981;51.052;13.754;2023-04-03T03:03:25;101641.88;;;0.37;66.47
75063;BME280;63981;51.052;13.754;2023-04-03T03:06:08;101665.25;;;0.41;66.58
75063;BME280;63981;51.052;13.754;2023-04-03T03:08:35;101663.53;;;0.17;67.40
75063;BME280;63981;51.052;13.754;2023-04-03T03:11:00;101664.41;;;0.15;67.88
75063;BME280;63981;51.052;13.754;2023-04-03T03:13:27;101534.81;;;-0.69;68.88
75063;BME280;63981;51.052;13.754;2023-04-03T03:15:53;101669.56;;;0.07;68.60
75063;BME280;63981;51.052;13.754;2023-04-03T03:18:18;101672.16;;;0.09;68.94
75063;BME280;63981;51.052;13.754;2023-04-03T03:20:44;101662.66;;;-0.05;69.11
75063;BME280;63981;51.052;13.754;2023-04-03T03:23:10;101637.59;;;-0.32;69.39
75063;BME280;63981;51.052;13.754;2023-04-03T03:25:39;101678.19;;;-0.15;69.18
75063;BME280;63981;51.052;13.754;2023-04-03T03:28:07;101673.88;;;-0.15;69.91
75063;BME280;63981;51.052;13.754;2023-04-03T03:30:33;101658.31;;;-0.22;70.12
75063;BME280;63981;51.052;13.754;2023-04-03T03:32:59;101632.34;;;-0.57;70.62
75063;BME280;63981;51.052;13.754;2023-04-03T03:35:25;101666.09;;;-0.21;70.92
75063;BME280;63981;51.052;13.754;2023-04-03T03:37:51;101596.91;;;-0.84;70.33
75063;BME280;63981;51.052;13.754;2023-04-03T03:40:17;101677.25;;;-0.54;70.82
75063;BME280;63981;51.052;13.754;2023-04-03T03:42:43;101683.28;;;-0.56;71.68
75063;BME280;63981;51.052;13.754;2023-04-03T03:45:09;101686.78;;;-0.45;71.67
75063;BME280;63981;51.052;13.754;2023-04-03T03:47:35;101682.53;;;-0.10;71.22
75063;BME280;63981;51.052;13.754;2023-04-03T03:50:02;101678.19;;;0.24;70.75
75063;BME280;63981;51.052;13.754;2023-04-03T03:52:28;101630.69;;;-0.05;70.78
75063;BME280;63981;51.052;13.754;2023-04-03T03:54:55;101681.59;;;0.71;70.20
75063;BME280;63981;51.052;13.754;2023-04-03T03:57:21;101653.13;;;0.52;69.89
75063;BME280;63981;51.052;13.754;2023-04-03T03:59:48;101687.72;;;0.32;69.68
75063;BME280;63981;51.052;13.754;2023-04-03T04:02:16;101660.94;;;0.08;68.99
75063;BME280;63981;51.052;13.754;2023-04-03T04:04:42;101679.94;;;0.03;70.21
75063;BME280;63981;51.052;13.754;2023-04-03T04:07:09;101678.22;;;0.14;70.51
75063;BME280;63981;51.052;13.754;2023-04-03T04:09:35;101680.81;;;0.08;70.48
75063;BME280;63981;51.052;13.754;2023-04-03T04:12:01;101684.25;;;-0.22;70.70
75063;BME280;63981;51.052;13.754;2023-04-03T04:14:27;101690.22;;;-0.40;71.85
75063;BME280;63981;51.052;13.754;2023-04-03T04:16:53;101692.75;;;-0.71;71.56
75063;BME280;63981;51.052;13.754;2023-04-03T04:19:23;101697.91;;;-0.77;71.89
75063;BME280;63981;51.052;13.754;2023-04-03T04:21:49;101633.91;;;-1.11;72.26
75063;BME280;63981;51.052;13.754;2023-04-03T04:24:15;101703.94;;;-0.76;72.61
75063;BME280;63981;51.052;13.754;2023-04-03T04:26:41;101638.19;;;-1.23;74.07
75063;BME280;63981;51.052;13.754;2023-04-03T04:29:10;101680.63;;;-0.79;73.35
75063;BME280;63981;51.052;13.754;2023-04-03T04:31:36;101705.72;;;-0.62;72.39
75063;BME280;63981;51.052;13.754;2023-04-03T04:34:02;101693.53;;;-0.87;72.75
75063;BME280;63981;51.052;13.754;2023-04-03T04:36:28;101721.09;;;-0.94;74.02
75063;BME280;63981;51.052;13.754;2023-04-03T04:38:54;101725.59;;;-0.61;72.97
75063;BME280;63981;51.052;13.754;2023-04-03T04:41:22;101724.66;;;-0.70;73.82
75063;BME280;63981;51.052;13.754;2023-04-03T04:43:51;101722.06;;;-0.78;74.02
75063;BME280;63981;51.052;13.754;2023-04-03T04:46:18;101727.19;;;-0.82;75.09
75063;BME280;63981;51.052;13.754;2023-04-03T04:48:49;101728.06;;;-0.79;74.32
75063;BME280;63981;51.052;13.754;2023-04-03T04:51:17;101728.88;;;-0.94;75.06
75063;BME280;63981;51.052;13.754;2023-04-03T04:53:43;101690.75;;;-1.30;74.25
75063;BME280;63981;51.052;13.754;2023-04-03T04:56:11;101736.56;;;-1.07;74.97
75063;BME280;63981;51.052;13.754;2023-04-03T04:58:39;101699.25;;;-1.44;74.90
75063;BME280;63981;51.052;13.754;2023-04-03T05:01:07;101738.34;;;-0.94;74.81
75063;BME280;63981;51.052;13.754;2023-04-03T05:03:37;101750.59;;;-0.61;75.97
75063;BME280;63981;51.052;13.754;2023-04-03T05:06:04;101745.50;;;-0.41;74.73
75063;BME280;63981;51.052;13.754;2023-04-03T05:08:32;101740.38;;;-0.24;74.67
75063;BME280;63981;51.052;13.754;2023-04-03T05:10:58;101743.88;;;0.07;73.76
75063;BME280;63981;51.052;13.754;2023-04-03T05:13:26;101748.22;;;0.02;74.14
75063;BME280;63981;51.052;13.754;2023-04-03T05:15:52;101745.59;;;0.12;74.18
75063;BME280;63981;51.052;13.754;2023-04-03T05:18:18;101736.13;;;0.17;74.03
75063;BME280;63981;51.052;13.754;2023-04-03T05:20:44;101721.41;;;0.22;73.40
75063;BME280;63981;51.052;13.754;2023-04-03T05:23:10;101755.13;;;0.62;73.54
75063;BME280;63981;51.052;13.754;2023-04-03T05:25:40;101724.03;;;0.28;72.13
75063;BME280;63981;51.052;13.754;2023-04-03T05:28:07;101712.78;;;0.54;71.95
75063;BME280;63981;51.052;13.754;2023-04-03T05:30:33;101709.25;;;0.85;71.62
75063;BME280;63981;51.052;13.754;2023-04-03T05:33:02;101710.03;;;1.10;69.87
75063;BME280;63981;51.052;13.754;2023-04-03T05:35:43;101697.13;;;0.95;69.72
75063;BME280;63981;51.052;13.754;2023-04-03T05:38:13;101713.47;;;1.22;69.33
75063;BME280;63981;51.052;13.754;2023-04-03T05:40:40;101756.75;;;1.30;69.77
75063;BME280;63981;51.052;13.754;2023-04-03T05:43:06;101757.53;;;1.47;69.39
75063;BME280;63981;51.052;13.754;2023-04-03T05:45:35;101755.81;;;1.40;67.95
75063;BME280;63981;51.052;13.754;2023-04-03T05:48:01;101761.81;;;1.59;67.81
75063;BME280;63981;51.052;13.754;2023-04-03T05:50:28;101748.63;;;1.91;67.32
75063;BME280;63981;51.052;13.754;2023-04-03T05:52:57;101709.84;;;1.58;67.82
75063;BME280;63981;51.052;13.754;2023-04-03T05:55:25;101756.44;;;1.88;65.92
75063;BME280;63981;51.052;13.754;2023-04-03T05:57:51;101765.84;;;2.07;67.06
75063;BME280;63981;51.052;13.754;2023-04-03T06:00:17;101762.56;;;1.80;67.87
75063;BME280;63981;51.052;13.754;2023-04-03T06:02:52;101733.06;;;1.88;67.12
75063;BME280;63981;51.052;13.754;2023-04-03T06:05:21;101722.59;;;1.97;66.81
75063;BME280;63981;51.052;13.754;2023-04-03T06:07:48;101765.66;;;2.36;65.05
75063;BME280;63981;51.052;13.754;2023-04-03T06:10:14;101759.63;;;2.30;66.09
75063;BME280;63981;51.052;13.754;2023-04-03T06:12:40;101765.75;;;2.26;66.23
75063;BME280;63981;51.052;13.754;2023-04-03T06:15:07;101771.91;;;2.11;65.06
75063;BME280;63981;51.052;13.754;2023-04-03T06:17:36;101715.81;;;1.73;66.70
75063;BME280;63981;51.052;13.754;2023-04-03T06:20:04;101766.47;;;2.42;65.02
75063;BME280;63981;51.052;13.754;2023-04-03T06:22:30;101772.81;;;2.09;65.49
75063;BME280;63981;51.052;13.754;2023-04-03T06:24:57;101777.66;;;2.54;64.64
75063;BME280;63981;51.052;13.754;2023-04-03T06:27:23;101696.50;;;2.06;64.46
75063;BME280;63981;51.052;13.754;2023-04-03T06:29:49;101777.75;;;2.42;64.93
75063;BME280;63981;51.052;13.754;2023-04-03T06:32:16;101682.09;;;1.63;65.05
75063;BME280;63981;51.052;13.754;2023-04-03T06:34:42;101776.00;;;2.46;65.97
75063;BME280;63981;51.052;13.754;2023-04-03T06:37:19;101774.16;;;2.58;65.11
75063;BME280;63981;51.052;13.754;2023-04-03T06:39:45;101785.75;;;2.16;64.60
75063;BME280;63981;51.052;13.754;2023-04-03T06:42:11;101778.00;;;2.12;66.18
75063;BME280;63981;51.052;13.754;2023-04-03T06:44:46;101780.09;;;2.74;64.65
75063;BME280;63981;51.052;13.754;2023-04-03T06:47:16;101701.78;;;1.94;65.52
75063;BME280;63981;51.052;13.754;2023-04-03T06:49:42;101786.50;;;2.35;64.47
75063;BME280;63981;51.052;13.754;2023-04-03T06:52:09;101747.75;;;1.94;65.78
75063;BME280;63981;51.052;13.754;2023-04-03T06:54:35;101708.78;;;1.88;64.63
75063;BME280;63981;51.052;13.754;2023-04-03T06:57:01;101679.38;;;1.83;65.24
75063;BME280;63981;51.052;13.754;2023-04-03T06:59:27;101795.00;;;2.57;64.74
75063;BME280;63981;51.052;13.754;2023-04-03T07:01:53;101792.28;;;2.69;64.64
75063;BME280;63981;51.052;13.754;2023-04-03T07:04:19;101793.88;;;2.87;63.58
75063;BME280;63981;51.052;13.754;2023-04-03T07:06:46;101798.09;;;3.00;63.75
75063;BME280;63981;51.052;13.754;2023-04-03T07:09:15;101800.50;;;3.18;62.15
75063;BME280;63981;51.052;13.754;2023-04-03T07:11:41;101805.97;;;2.92;62.48
75063;BME280;63981;51.052;13.754;2023-04-03T07:14:07;101806.75;;;2.99;63.33
75063;BME280;63981;51.052;13.754;2023-04-03T07:16:34;101774.88;;;2.73;63.14
75063;BME280;63981;51.052;13.754;2023-04-03T07:19:00;101816.44;;;2.85;63.05
75063;BME280;63981;51.052;13.754;2023-04-03T07:21:27;101814.81;;;2.72;63.39
75063;BME280;63981;51.052;13.754;2023-04-03T07:23:53;101765.50;;;2.56;63.81
75063;BME280;63981;51.052;13.754;2023-04-03T07:26:19;101778.97;;;3.01;61.70
75063;BME280;63981;51.052;13.754;2023-04-03T07:28:47;101822.41;;;2.97;62.14
75063;BME280;63981;51.052;13.754;2023-04-03T07:31:14;101818.94;;;3.00;62.32
75063;BME280;63981;51.052;13.754;2023-04-03T07:33:41;101786.97;;;2.81;61.98
75063;BME280;63981;51.052;13.754;2023-04-03T07:36:08;101764.75;;;3.31;60.40
75063;BME280;63981;51.052;13.754;2023-04-03T07:38:35;101763.94;;;3.24;60.74
75063;BME280;63981;51.052;13.754;2023-04-03T07:41:01;101820.84;;;3.63;60.30
75063;BME280;63981;51.052;13.754;2023-04-03T07:43:27;101821.53;;;3.77;58.64
75063;BME280;63981;51.052;13.754;2023-04-03T07:45:53;101787.53;;;3.11;59.16
75063;BME280;63981;51.052;13.754;2023-04-03T07:48:21;101827.78;;;3.65;59.60
75063;BME280;63981;51.052;13.754;2023-04-03T07:50:48;101809.97;;;3.29;59.18
75063;BME280;63981;51.052;13.754;2023-04-03T07:53:14;101835.34;;;3.85;58.93
75063;BME280;63981;51.052;13.754;2023-04-03T07:55:40;101831.09;;;3.79;nan
75063;BME280;63981;51.052;13.754;2023-04-03T07:58:10;101830.66;;;4.11;59.38
75063;BME280;63981;51.052;13.754;2023-04-03T08:00:36;101838.16;;;3.70;60.65
75063;BME280;63981;51.052;13.754;2023-04-03T08:03:02;101834.66;;;3.72;60.25
75063;BME280;63981;51.052;13.754;2023-04-03T08:05:28;101841.53;;;3.79;59.12
75063;BME280;63981;51.052;13.754;2023-04-03T08:07:53;101814.75;;;3.67;60.00
75063;BME280;63981;51.052;13.754;2023-04-03T08:10:19;101834.09;;;4.73;57.59
75063;BME280;63981;51.052;13.754;2023-04-03T08:12:46;101831.69;;;4.60;58.82
75063;BME280;63981;51.052;13.754;2023-04-03T08:15:12;101799.28;;;4.73;56.31
75063;BME280;63981;51.052;13.754;2023-04-03T08:17:38;101826.91;;;4.32;56.96
75063;BME280;63981;51.052;13.754;2023-04-03T08:20:06;101823.81;;;5.14;55.31
75063;BME280;63981;51.052;13.754;2023-04-03T08:22:33;101823.03;;;5.09;54.36
75063;BME280;63981;51.052;13.754;2023-04-03T08:24:59;101824.19;;;5.40;54.17
75063;BME280;63981;51.052;13.754;2023-04-03T08:27:25;101827.16;;;5.22;55.11
75063;BME280;63981;51.052;13.754;2023-04-03T08:29:52;101826.59;;;5.51;53.62
75063;BME280;63981;51.052;13.754;2023-04-03T08:32:17;101827.47;;;5.51;54.15
75063;BME280;63981;51.052;13.754;2023-04-03T08:34:43;101827.09;;;5.25;53.97
75063;BME280;63981;51.052;13.754;2023-04-03T08:37:09;101831.59;;;4.66;54.18
75063;BME280;63981;51.052;13.754;2023-04-03T08:39:35;101784.78;;;4.54;55.03
75063;BME280;63981;51.052;13.754;2023-04-03T08:42:06;101838.19;;;4.88;54.31
75063;BME280;63981;51.052;13.754;2023-04-03T08:44:52;101825.03;;;5.42;54.51
75063;BME280;63981;51.052;13.754;2023-04-03T08:47:26;101817.81;;;5.53;54.43
75063;BME280;63981;51.052;13.754;2023-04-03T08:50:02;101830.75;;;5.15;56.46
75063;BME280;63981;51.052;13.754;2023-04-03T08:52:50;101830.81;;;5.58;53.85
75063;BME280;63981;51.052;13.754;2023-04-03T08:55:28;101827.81;;;6.92;51.42
75063;BME280;63981;51.052;13.754;2023-04-03T08:58:02;101834.28;;;6.42;51.45
75063;BME280;63981;51.052;13.754;2023-04-03T09:00:34;101805.41;;;6.45;50.06
75063;BME280;63981;51.052;13.754;2023-04-03T09:03:03;101807.31;;;7.72;49.80
75063;BME280;63981;51.052;13.754;2023-04-03T09:08:35;101822.63;;;8.15;46.21
75063;BME280;63981;51.052;13.754;2023-04-03T09:13:36;101828.28;;;6.37;49.37
75063;BME280;63981;51.052;13.754;2023-04-03T09:16:38;101829.81;;;5.65;51.83
75063;BME280;63981;51.052;13.754;2023-04-03T09:19:22;101815.16;;;9.10;45.57
75063;BME280;63981;51.052;13.754;2023-04-03T09:21:48;101818.31;;;8.42;45.50
75063;BME280;63981;51.052;13.754;2023-04-03T09:24:16;101808.78;;;8.92;45.78
75063;BME280;63981;51.052;13.754;2023-04-03T09:26:46;101819.53;;;8.84;45.27
75063;BME280;63981;51.052;13.754;2023-04-03T09:29:19;101808.50;;;10.20;43.43
75063;BME280;63981;51.052;13.754;2023-04-03T09:32:01;101746.75;;;11.68;40.33
75063;BME280;63981;51.052;13.754;2023-04-03T09:34:30;101776.44;;;9.15;40.36
75063;BME280;63981;51.052;13.754;2023-04-03T09:37:00;101817.69;;;8.88;43.23
75063;BME280;63981;51.052;13.754;2023-04-03T09:39:32;101817.97;;;7.65;45.35
75063;BME280;63981;51.052;13.754;2023-04-03T09:42:16;101759.09;;;7.45;46.62
75063;BME280;63981;51.052;13.754;2023-04-03T09:44:54;101801.31;;;8.53;45.83
75063;BME280;63981;51.052;13.754;2023-04-03T09:47:28;101811.16;;;8.17;45.88
75063;BME280;63981;51.052;13.754;2023-04-03T09:52:41;101810.66;;;7.46;46.76
75063;BME280;63981;51.052;13.754;2023-04-03T09:55:14;101761.03;;;12.74;38.48
75063;BME280;63981;51.052;13.754;2023-04-03T09:57:41;101793.88;;;10.56;41.26
75063;BME280;63981;51.052;13.754;2023-04-03T10:00:20;101774.63;;;13.18;36.40
75063;BME280;63981;51.052;13.754;2023-04-03T10:02:51;101789.38;;;11.01;36.82
75063;BME280;63981;51.052;13.754;2023-04-03T10:05:44;101791.50;;;9.10;41.40
75063;BME280;63981;51.052;13.754;2023-04-03T10:10:40;101749.16;;;7.56;43.06
75063;BME280;63981;51.052;13.754;2023-04-03T10:13:11;101786.81;;;8.12;43.43
75063;BME280;63981;51.052;13.754;2023-04-03T10:15:43;101800.31;;;7.39;43.61
75063;BME280;63981;51.052;13.754;2023-04-03T10:20:53;101741.44;;;7.79;44.03
75063;BME280;63981;51.052;13.754;2023-04-03T10:32:44;101748.25;;;13.49;29.46
75063;BME280;63981;51.052;13.754;2023-04-03T10:34:43;101735.56;;;9.77;34.48
75063;BME280;63981;51.052;13.754;2023-04-03T10:42:16;101754.22;;;11.39;33.80
75063;BME280;63981;51.052;13.754;2023-04-03T10:47:56;101755.50;;;11.89;31.77
75063;BME280;63981;51.052;13.754;2023-04-03T10:56:18;101702.41;;;9.71;34.99
75063;BME280;63981;51.052;13.754;2023-04-03T10:58:52;101709.44;;;12.65;32.92
75063;BME280;63981;51.052;13.754;2023-04-03T11:01:23;101718.63;;;18.83;23.17
75063;BME280;63981;51.052;13.754;2023-04-03T11:03:57;101719.09;;;23.32;19.68
75063;BME280;63981;51.052;13.754;2023-04-03T11:06:26;101639.31;;;22.47;18.22
75063;BME280;63981;51.052;13.754;2023-04-03T11:08:57;101651.84;;;23.59;16.32
75063;BME280;63981;51.052;13.754;2023-04-03T11:11:32;101677.84;;;15.54;21.91
75063;BME280;63981;51.052;13.754;2023-04-03T11:14:05;101727.81;;;13.51;26.28
75063;BME280;63981;51.052;13.754;2023-04-03T11:16:39;101740.41;;;10.93;29.09
75063;BME280;63981;51.052;13.754;2023-04-03T11:22:02;101735.97;;;9.88;33.35
75063;BME280;63981;51.052;13.754;2023-04-03T11:24:32;101732.19;;;9.95;33.15
75063;BME280;63981;51.052;13.754;2023-04-03T11:27:00;101738.72;;;9.85;33.38
75063;BME280;63981;51.052;13.754;2023-04-03T11:29:32;101734.34;;;10.07;33.09
75063;BME280;63981;51.052;13.754;2023-04-03T11:32:27;101605.09;;;9.01;32.18
75063;BME280;63981;51.052;13.754;2023-04-03T11:34:57;101736.81;;;8.95;33.78
75063;BME280;63981;51.052;13.754;2023-04-03T11:37:40;101734.16;;;9.20;34.12
75063;BME280;63981;51.052;13.754;2023-04-03T11:42:52;101695.44;;;8.75;34.54
75063;BME280;63981;51.052;13.754;2023-04-03T11:50:39;101716.81;;;11.11;32.14
75063;BME280;63981;51.052;13.754;2023-04-03T12:06:41;101740.47;;;8.39;38.63
75063;BME280;63981;51.052;13.754;2023-04-03T12:08:53;101733.31;;;8.69;37.15
75063;BME280;63981;51.052;13.754;2023-04-03T12:11:28;101727.41;;;9.12;35.61
75063;BME280;63981;51.052;13.754;2023-04-03T12:24:37;101714.00;;;8.95;34.42
75063;BME280;63981;51.052;13.754;2023-04-03T12:43:59;101609.34;;;6.93;35.66
75063;BME280;63981;51.052;13.754;2023-04-03T12:46:43;101702.00;;;8.37;35.75
75063;BME280;63981;51.052;13.754;2023-04-03T12:51:54;101722.09;;;7.83;37.41
75063;BME280;63981;51.052;13.754;2023-04-03T12:54:25;101719.41;;;8.13;37.88
75063;BME280;63981;51.052;13.754;2023-04-03T12:57:18;101718.50;;;7.86;38.67
75063;BME280;63981;51.052;13.754;2023-04-03T12:59:44;101649.66;;;7.48;37.98
75063;BME280;63981;51.052;13.754;2023-04-03T13:02:25;101720.31;;;7.84;38.16
75063;BME280;63981;51.052;13.754;2023-04-03T13:04:57;101722.19;;;7.51;40.42
75063;BME280;63981;51.052;13.754;2023-04-03T13:07:30;101731.09;;;8.03;39.15
75063;BME280;63981;51.052;13.754;2023-04-03T13:12:47;101668.78;;;8.36;37.42
75063;BME280;63981;51.052;13.754;2023-04-03T13:15:26;101690.06;;;9.03;36.14
75063;BME280;63981;51.052;13.754;2023-04-03T13:17:53;101678.31;;;9.13;37.01
75063;BME280;63981;51.052;13.754;2023-04-03T13:20:29;101668.72;;;9.34;35.56
75063;BME280;63981;51.052;13.754;2023-04-03T13:25:24;101672.25;;;10.64;34.10
75063;BME280;63981;51.052;13.754;2023-04-03T13:27:51;101688.91;;;18.29;24.80
75063;BME280;63981;51.052;13.754;2023-04-03T13:30:32;101691.66;;;14.43;26.20
75063;BME280;63981;51.052;13.754;2023-04-03T13:33:01;101694.31;;;12.15;28.51
75063;BME280;63981;51.052;13.754;2023-04-03T13:35:39;101656.16;;;9.86;33.16
75063;BME280;63981;51.052;13.754;2023-04-03T13:40:56;101723.97;;;7.19;37.88
75063;BME280;63981;51.052;13.754;2023-04-03T13:43:26;101579.16;;;7.09;37.93
75063;BME280;63981;51.052;13.754;2023-04-03T13:48:24;101709.06;;;7.51;39.83
75063;BME280;63981;51.052;13.754;2023-04-03T13:51:00;101707.38;;;7.78;38.13
75063;BME280;63981;51.052;13.754;2023-04-03T13:53:27;101651.84;;;7.34;38.29
75063;BME280;63981;51.052;13.754;2023-04-03T13:56:09;101688.91;;;8.62;35.88
75063;BME280;63981;51.052;13.754;2023-04-03T13:58:36;101673.25;;;7.20;36.33
75063;BME280;63981;51.052;13.754;2023-04-03T14:01:20;101629.31;;;7.56;38.21
75063;BME280;63981;51.052;13.754;2023-04-03T14:03:59;101699.13;;;8.16;36.93
75063;BME280;63981;51.052;13.754;2023-04-03T14:06:25;101691.41;;;9.38;36.58
75063;BME280;63981;51.052;13.754;2023-04-03T14:08:51;101651.63;;;18.16;23.86
75063;BME280;63981;51.052;13.754;2023-04-03T14:11:35;101666.19;;;15.28;25.43
75063;BME280;63981;51.052;13.754;2023-04-03T14:14:06;101660.66;;;11.07;31.63
75063;BME280;63981;51.052;13.754;2023-04-03T14:16:39;101701.94;;;8.90;35.86
75063;BME280;63981;51.052;13.754;2023-04-03T14:19:06;101668.97;;;8.28;36.69
75063;BME280;63981;51.052;13.754;2023-04-03T14:21:32;101703.22;;;7.98;37.93
75063;BME280;63981;51.052;13.754;2023-04-03T14:23:57;101682.00;;;7.19;39.67
75063;BME280;63981;51.052;13.754;2023-04-03T14:26:24;101688.03;;;6.59;38.57
75063;BME280;63981;51.052;13.754;2023-04-03T14:28:53;101712.38;;;7.57;38.26
75063;BME280;63981;51.052;13.754;2023-04-03T14:31:20;101702.06;;;6.57;38.48
75063;BME280;63981;51.052;13.754;2023-04-03T14:33:46;101677.56;;;6.92;40.83
75063;BME280;63981;51.052;13.754;2023-04-03T14:36:14;101709.69;;;7.29;39.61
75063;BME280;63981;51.052;13.754;2023-04-03T14:38:41;101702.44;;;7.67;38.74
75063;BME280;63981;51.052;13.754;2023-04-03T14:41:11;101703.41;;;7.35;38.34
75063;BME280;63981;51.052;13.754;2023-04-03T14:43:37;101704.66;;;7.22;39.85